createdAt,value
2022-09-30T00:01:29.520Z,70.88
2022-09-30T00:03:58.415Z,71.63
2022-09-30T00:06:26.873Z,70.97
2022-09-30T00:08:55.923Z,70.95
2022-09-30T00:11:29.193Z,71.14
2022-09-30T00:13:57.760Z,71.72
2022-09-30T00:16:28.605Z,70.93
2022-09-30T00:19:00.792Z,70.06
2022-09-30T00:21:29.478Z,69.99
2022-09-30T00:24:00.224Z,70.21
2022-09-30T00:26:28.547Z,70.71
2022-09-30T00:28:57.457Z,70.22
2022-09-30T00:31:26.544Z,70.37
2022-09-30T00:34:11.671Z,71.58
2022-09-30T00:36:43.097Z,71.11
2022-09-30T00:39:12.297Z,72.97
2022-09-30T00:41:40.380Z,72.99
2022-09-30T00:44:29.241Z,72.96
2022-09-30T00:46:59.523Z,72.34
2022-09-30T00:49:36.372Z,72.95
2022-09-30T00:52:04.830Z,72.88
2022-09-30T00:54:36.076Z,72.21
2022-09-30T00:57:09.215Z,73.04
2022-09-30T00:59:39.081Z,72.77
2022-09-30T01:02:07.780Z,72.86
2022-09-30T01:04:38.279Z,74.71
2022-09-30T01:07:08.278Z,74.44
2022-09-30T01:09:40.486Z,74.98
2022-09-30T01:12:11.306Z,73.15
2022-09-30T01:14:42.064Z,73.61
2022-09-30T01:17:17.772Z,75.24
2022-09-30T01:20:02.058Z,73.49
2022-09-30T01:22:41.363Z,73.58
2022-09-30T01:25:28.672Z,73.40
2022-09-30T01:28:15.140Z,73.31
2022-09-30T01:30:58.099Z,74.04
2022-09-30T01:33:33.973Z,74.06
2022-09-30T01:36:18.853Z,74.32
2022-09-30T01:38:56.971Z,73.95
2022-09-30T01:41:28.304Z,72.56
2022-09-30T01:44:03.955Z,72.76
2022-09-30T01:46:35.964Z,75.00
2022-09-30T01:49:10.023Z,74.00
2022-09-30T01:51:42.001Z,72.21
2022-09-30T01:54:15.261Z,73.08
2022-09-30T01:56:44.972Z,72.71
2022-09-30T01:59:16.879Z,71.28
2022-09-30T02:01:49.371Z,73.53
2022-09-30T02:04:20.980Z,74.94
2022-09-30T02:06:52.741Z,74.89
2022-09-30T02:09:25.950Z,75.21
2022-09-30T02:11:56.600Z,74.01
2022-09-30T02:14:27.739Z,74.57
2022-09-30T02:17:02.449Z,74.17
2022-09-30T02:19:35.912Z,73.70
2022-09-30T02:22:08.361Z,73.76
2022-09-30T02:24:38.166Z,72.51
2022-09-30T02:27:12.539Z,73.20
2022-09-30T02:29:43.234Z,73.28
2022-09-30T02:32:15.028Z,72.76
2022-09-30T02:34:46.588Z,72.51
2022-09-30T02:37:19.041Z,74.07
2022-09-30T02:39:52.598Z,73.70
2022-09-30T02:42:23.475Z,72.87
2022-09-30T02:44:52.877Z,73.29
2022-09-30T02:47:26.975Z,73.35
2022-09-30T02:49:58.777Z,75.23
2022-09-30T02:52:31.151Z,75.05
2022-09-30T02:55:03.992Z,73.06
2022-09-30T02:57:39.720Z,72.57
2022-09-30T03:00:12.760Z,73.43
2022-09-30T03:02:45.506Z,71.92
2022-09-30T03:05:14.372Z,73.11
2022-09-30T03:07:42.813Z,72.60
2022-09-30T03:10:14.625Z,73.34
2022-09-30T03:12:47.330Z,72.92
2022-09-30T03:15:24.281Z,72.27
2022-09-30T03:18:10.019Z,72.39
2022-09-30T03:20:47.053Z,72.51
2022-09-30T03:23:23.942Z,72.42
2022-09-30T03:26:00.132Z,72.48
2022-09-30T03:28:30.435Z,72.43
2022-09-30T03:31:05.803Z,72.20
2022-09-30T03:33:40.857Z,71.68
2022-09-30T03:36:16.021Z,71.59
2022-09-30T03:38:49.636Z,72.20
2022-09-30T03:41:24.224Z,73.10
2022-09-30T03:44:00.216Z,72.96
2022-09-30T03:46:33.978Z,73.19
2022-09-30T03:49:04.301Z,71.97
2022-09-30T03:51:36.750Z,70.60
2022-09-30T03:54:08.232Z,71.26
2022-09-30T03:56:37.394Z,71.49
2022-09-30T03:59:07.410Z,70.62
2022-09-30T04:01:35.644Z,70.80
2022-09-30T04:04:20.995Z,70.66
2022-09-30T04:06:51.227Z,70.45
2022-09-30T04:09:19.790Z,70.91
2022-09-30T04:11:48.145Z,69.84
2022-09-30T04:14:16.281Z,70.34
2022-09-30T04:16:44.482Z,69.70
2022-09-30T04:19:12.634Z,70.32
2022-09-30T04:21:40.869Z,70.20
2022-09-30T04:24:10.669Z,71.88
2022-09-30T04:26:38.889Z,71.46
2022-09-30T04:29:07.030Z,70.20
2022-09-30T04:31:35.228Z,70.29
2022-09-30T04:34:03.517Z,69.29
2022-09-30T04:36:31.960Z,68.53
2022-09-30T04:39:00.137Z,69.11
2022-09-30T04:41:29.832Z,69.41
2022-09-30T04:43:57.923Z,68.16
2022-09-30T04:46:26.047Z,67.91
2022-09-30T04:48:56.926Z,67.32
2022-09-30T04:51:25.156Z,66.73
2022-09-30T04:53:53.330Z,66.47
2022-09-30T04:56:21.513Z,65.87
2022-09-30T04:58:51.349Z,66.70
2022-09-30T05:01:20.034Z,65.59
2022-09-30T05:03:48.882Z,65.12
2022-09-30T05:06:17.090Z,65.43
2022-09-30T05:08:46.335Z,64.58
2022-09-30T05:11:17.576Z,64.17
2022-09-30T05:13:46.120Z,65.34
2022-09-30T05:16:16.834Z,66.17
2022-09-30T05:18:46.449Z,65.71
2022-09-30T05:21:15.771Z,65.00
2022-09-30T05:23:43.862Z,65.86
2022-09-30T05:26:12.898Z,66.19
2022-09-30T05:28:41.383Z,66.40
2022-09-30T05:31:09.817Z,66.36
2022-09-30T05:33:39.412Z,66.82
2022-09-30T05:36:08.435Z,66.62
2022-09-30T05:38:36.842Z,66.77
2022-09-30T05:41:11.588Z,65.89
2022-09-30T05:43:40.466Z,66.65
2022-09-30T05:46:08.717Z,66.90
2022-09-30T05:48:39.199Z,67.55
2022-09-30T05:51:09.581Z,66.82
2022-09-30T05:53:38.810Z,67.47
2022-09-30T05:56:07.294Z,67.99
2022-09-30T05:58:35.395Z,67.87
2022-09-30T06:01:12.892Z,67.35
2022-09-30T06:03:41.894Z,66.83
2022-09-30T06:06:11.707Z,65.42
2022-09-30T06:08:40.440Z,66.15
2022-09-30T06:11:13.191Z,65.57
2022-09-30T06:13:42.059Z,66.73
2022-09-30T06:16:10.753Z,66.06
2022-09-30T06:18:41.709Z,65.24
2022-09-30T06:21:12.899Z,65.62
2022-09-30T06:23:41.785Z,65.79
2022-09-30T06:26:11.894Z,64.05
2022-09-30T06:28:40.340Z,64.83
2022-09-30T06:31:08.530Z,65.22
2022-09-30T06:33:36.870Z,64.18
2022-09-30T06:36:06.288Z,64.67
2022-09-30T06:38:37.530Z,64.35
2022-09-30T06:41:08.689Z,63.01
2022-09-30T06:43:45.558Z,63.53
2022-09-30T06:46:30.358Z,62.37
2022-09-30T06:49:13.327Z,59.77
2022-09-30T06:51:42.296Z,60.82
2022-09-30T06:54:13.704Z,59.83
2022-09-30T06:56:41.998Z,58.83
2022-09-30T06:59:10.088Z,58.69
2022-09-30T07:01:39.030Z,57.51
2022-09-30T07:04:10.807Z,57.24
2022-09-30T07:06:39.667Z,57.33
2022-09-30T07:09:08.209Z,57.01
2022-09-30T07:11:38.012Z,58.27
2022-09-30T07:14:06.240Z,55.38
2022-09-30T07:16:35.097Z,56.13
2022-09-30T07:19:03.829Z,56.04
2022-09-30T07:21:32.334Z,55.00
2022-09-30T07:24:00.599Z,57.17
2022-09-30T07:26:29.081Z,54.07
2022-09-30T07:29:00.264Z,55.83
2022-09-30T07:31:34.093Z,56.24
2022-09-30T07:34:03.588Z,54.93
2022-09-30T07:36:34.117Z,56.67
2022-09-30T07:39:06.984Z,58.27
2022-09-30T07:41:36.639Z,54.21
2022-09-30T07:44:07.099Z,55.68
2022-09-30T07:46:36.397Z,54.96
2022-09-30T07:49:06.898Z,57.10
2022-09-30T07:51:36.422Z,58.54
2022-09-30T07:54:06.630Z,56.21
2022-09-30T07:56:57.920Z,58.03
2022-09-30T07:59:26.131Z,57.85
2022-09-30T08:01:54.619Z,56.03
2022-09-30T08:04:23.490Z,55.93
2022-09-30T08:06:52.925Z,57.16
2022-09-30T08:09:23.052Z,59.60
2022-09-30T08:11:51.670Z,57.54
2022-09-30T08:14:20.979Z,57.35
2022-09-30T08:16:51.262Z,57.71
2022-09-30T08:19:20.487Z,58.24
2022-09-30T08:21:49.332Z,56.73
2022-09-30T08:24:17.891Z,55.70
2022-09-30T08:26:46.109Z,55.03
2022-09-30T08:29:20.692Z,53.24
2022-09-30T08:31:59.849Z,58.28
2022-09-30T08:34:33.880Z,56.57
2022-09-30T08:37:07.510Z,56.31
2022-09-30T08:39:37.179Z,56.01
2022-09-30T08:42:35.655Z,54.28
2022-09-30T08:45:08.824Z,55.19
2022-09-30T08:47:49.439Z,58.46
2022-09-30T08:50:20.616Z,55.84
2022-09-30T08:52:50.904Z,57.20
2022-09-30T08:55:22.051Z,53.48
2022-09-30T08:57:50.530Z,57.13
2022-09-30T09:00:19.496Z,55.88
2022-09-30T09:02:50.604Z,56.00
2022-09-30T09:05:23.410Z,55.23
2022-09-30T09:07:57.166Z,54.34
2022-09-30T09:10:29.560Z,55.57
2022-09-30T09:13:00.209Z,56.88
2022-09-30T09:15:33.913Z,57.30
2022-09-30T09:18:24.831Z,56.18
2022-09-30T09:20:57.903Z,56.67
2022-09-30T09:23:26.836Z,57.27
2022-09-30T09:25:55.118Z,57.67
2022-09-30T09:28:30.608Z,55.59
2022-09-30T09:31:00.078Z,57.69
2022-09-30T09:33:31.915Z,56.56
2022-09-30T09:36:06.658Z,55.09
2022-09-30T09:38:40.471Z,57.68
2022-09-30T09:41:18.607Z,59.52
2022-09-30T09:43:53.157Z,57.38
2022-09-30T09:46:26.310Z,57.15
2022-09-30T09:49:13.020Z,56.17
2022-09-30T09:51:47.289Z,55.38
2022-09-30T09:54:19.105Z,54.44
2022-09-30T09:56:47.332Z,53.86
2022-09-30T09:59:18.196Z,58.45
2022-09-30T10:01:50.400Z,57.78
2022-09-30T10:04:22.132Z,57.48
2022-09-30T10:06:54.164Z,56.81
2022-09-30T10:09:27.123Z,54.37
2022-09-30T10:12:13.823Z,55.25
2022-09-30T10:14:46.398Z,57.16
2022-09-30T10:17:19.772Z,55.05
2022-09-30T10:19:51.921Z,52.90
2022-09-30T10:22:26.009Z,55.67
2022-09-30T10:25:10.044Z,55.89
2022-09-30T10:27:39.263Z,59.07
2022-09-30T10:30:07.726Z,59.18
2022-09-30T10:32:37.195Z,58.24
2022-09-30T10:35:08.463Z,59.11
2022-09-30T10:37:38.164Z,56.92
2022-09-30T10:40:09.146Z,56.05
2022-09-30T10:42:40.209Z,57.14
2022-09-30T10:45:10.239Z,57.70
2022-09-30T10:47:45.936Z,56.43
2022-09-30T10:50:17.293Z,55.84
2022-09-30T10:52:53.295Z,55.37
2022-09-30T10:55:30.483Z,57.50
2022-09-30T10:58:02.489Z,55.21
2022-09-30T11:00:33.222Z,57.37
2022-09-30T11:03:05.134Z,59.38
2022-09-30T11:05:35.275Z,58.01
2022-09-30T11:08:07.782Z,58.38
2022-09-30T11:10:42.039Z,59.49
2022-09-30T11:13:14.868Z,59.02
2022-09-30T11:15:46.439Z,60.99
2022-09-30T11:18:20.017Z,59.84
2022-09-30T11:20:51.946Z,59.15
2022-09-30T11:23:23.947Z,58.48
2022-09-30T11:25:56.992Z,57.73
2022-09-30T11:28:36.694Z,58.04
2022-09-30T11:31:09.585Z,56.56
2022-09-30T11:33:45.272Z,56.47
2022-09-30T11:36:19.111Z,59.76
2022-09-30T11:38:59.391Z,58.36
2022-09-30T11:41:30.074Z,57.66
2022-09-30T11:44:03.755Z,58.34
2022-09-30T11:46:50.100Z,55.41
2022-09-30T11:49:35.766Z,56.41
2022-09-30T11:52:11.804Z,57.36
2022-09-30T11:54:48.075Z,56.95
2022-09-30T11:57:20.243Z,56.15
2022-09-30T11:59:50.675Z,56.31
2022-09-30T12:02:27.999Z,56.52
2022-09-30T12:04:59.384Z,57.55
2022-09-30T12:07:32.794Z,54.93
2022-09-30T12:10:05.076Z,56.38
2022-09-30T12:12:33.635Z,55.52
2022-09-30T12:15:03.200Z,56.25
2022-09-30T12:17:35.627Z,55.30
2022-09-30T12:20:06.661Z,56.42
2022-09-30T12:22:39.629Z,56.80
2022-09-30T12:25:14.373Z,58.23
2022-09-30T12:27:45.685Z,56.54
2022-09-30T12:30:20.779Z,55.58
2022-09-30T12:35:57.317Z,58.02
2022-09-30T12:39:07.663Z,56.50
2022-09-30T12:41:51.625Z,57.43
2022-09-30T12:44:52.739Z,58.10
2022-09-30T12:47:46.132Z,56.08
2022-09-30T12:50:17.364Z,56.54
2022-09-30T12:52:47.854Z,56.94
2022-09-30T12:55:28.870Z,54.91
2022-09-30T12:57:58.304Z,55.38
2022-09-30T13:00:32.828Z,57.62
2022-09-30T13:03:07.304Z,57.22
2022-09-30T13:05:57.936Z,57.47
2022-09-30T13:08:44.008Z,57.95
2022-09-30T13:11:42.034Z,59.30
2022-09-30T13:14:35.193Z,59.70
2022-09-30T13:17:28.310Z,59.60
2022-09-30T13:19:57.583Z,60.19
2022-09-30T13:22:56.124Z,58.46
2022-09-30T13:25:25.743Z,57.98
2022-09-30T13:28:10.853Z,57.58
2022-09-30T13:30:41.595Z,57.96
2022-09-30T13:33:42.617Z,58.71
2022-09-30T13:36:33.202Z,58.21
2022-09-30T13:39:24.226Z,58.75
2022-09-30T13:42:06.358Z,57.85
2022-09-30T13:44:41.368Z,58.60
2022-09-30T13:47:19.686Z,58.99
2022-09-30T13:49:54.518Z,59.31
2022-09-30T13:52:28.039Z,61.43
2022-09-30T13:54:58.289Z,60.26
2022-09-30T13:57:36.418Z,61.15
2022-09-30T14:00:08.824Z,61.12
2022-09-30T14:03:16.556Z,61.45
2022-09-30T14:06:03.782Z,59.97
2022-09-30T14:09:07.785Z,61.80
2022-09-30T14:12:04.816Z,62.00
2022-09-30T14:15:06.757Z,62.11
2022-09-30T14:17:52.794Z,63.48
2022-09-30T14:20:41.531Z,63.50
2022-09-30T14:23:14.287Z,61.35
2022-09-30T14:25:53.312Z,63.19
2022-09-30T14:28:33.146Z,64.25
2022-09-30T14:31:10.315Z,64.42
2022-09-30T14:33:40.524Z,63.87
2022-09-30T14:39:02.532Z,62.50
2022-09-30T14:41:31.826Z,63.24
2022-09-30T14:44:05.803Z,63.86
2022-09-30T14:46:40.141Z,64.32
2022-09-30T14:49:14.680Z,64.67
2022-09-30T14:51:47.936Z,64.01
2022-09-30T14:54:23.604Z,64.26
2022-09-30T14:56:54.778Z,63.99
2022-09-30T14:59:27.223Z,64.08
2022-09-30T15:02:00.764Z,64.28
2022-09-30T15:04:32.691Z,65.36
2022-09-30T15:07:03.544Z,64.23
2022-09-30T15:09:36.410Z,65.81
2022-09-30T15:12:06.821Z,67.04
2022-09-30T15:14:35.340Z,65.49
2022-09-30T15:17:06.428Z,64.92
2022-09-30T15:19:43.660Z,64.42
2022-09-30T15:22:14.854Z,64.14
2022-09-30T15:24:44.492Z,65.49
2022-09-30T15:27:18.108Z,65.38
2022-09-30T15:29:55.788Z,65.82
2022-09-30T15:32:28.328Z,64.33
2022-09-30T15:34:58.815Z,65.87
2022-09-30T15:37:33.705Z,65.81
2022-09-30T15:40:21.390Z,65.25
2022-09-30T15:42:59.853Z,64.22
2022-09-30T15:45:35.435Z,64.56
2022-09-30T15:48:07.676Z,68.22
2022-09-30T15:50:38.854Z,67.02
2022-09-30T15:53:15.859Z,66.08
2022-09-30T15:55:45.956Z,66.32
2022-09-30T15:58:37.915Z,65.98
2022-09-30T16:01:17.392Z,66.08
2022-09-30T16:03:57.225Z,65.85
2022-09-30T16:06:32.480Z,67.23
2022-09-30T16:09:03.710Z,68.25
2022-09-30T16:11:36.801Z,67.27
2022-09-30T16:14:09.244Z,67.44
2022-09-30T16:16:39.255Z,66.23
2022-09-30T16:19:18.698Z,63.58
2022-09-30T16:21:50.965Z,66.02
2022-09-30T16:24:44.744Z,66.89
2022-09-30T16:27:32.869Z,65.56
2022-09-30T16:30:02.267Z,67.26
2022-09-30T16:32:38.670Z,68.05
2022-09-30T16:35:18.113Z,67.46
2022-09-30T16:37:49.378Z,67.28
2022-09-30T16:40:23.213Z,67.41
2022-09-30T16:42:54.968Z,67.92
2022-09-30T16:45:24.154Z,66.65
2022-09-30T16:47:52.936Z,67.14
2022-09-30T16:50:25.557Z,66.92
2022-09-30T16:52:54.305Z,67.23
2022-09-30T16:55:22.750Z,67.43
2022-09-30T16:57:51.385Z,67.38
2022-09-30T17:00:20.411Z,68.60
2022-09-30T17:02:52.468Z,67.82
2022-09-30T17:05:24.523Z,68.73
2022-09-30T17:07:55.401Z,67.54
2022-09-30T17:10:26.648Z,68.99
2022-09-30T17:12:55.132Z,70.41
2022-09-30T17:15:23.977Z,69.58
2022-09-30T17:17:52.897Z,68.49
2022-09-30T17:20:22.121Z,67.46
2022-09-30T17:22:54.724Z,68.44
2022-09-30T17:25:26.862Z,67.12
2022-09-30T17:28:00.196Z,67.68
2022-09-30T17:30:29.524Z,67.69
2022-09-30T17:32:59.235Z,68.97
2022-09-30T17:35:28.644Z,69.78
2022-09-30T17:38:04.429Z,69.17
2022-09-30T17:40:55.900Z,68.29
2022-09-30T17:43:30.220Z,69.36
2022-09-30T17:46:10.573Z,69.15
2022-09-30T17:48:43.523Z,68.28
2022-09-30T17:51:14.935Z,68.96
2022-09-30T17:53:52.882Z,68.60
2022-09-30T17:56:28.950Z,69.23
2022-09-30T17:59:02.139Z,69.58
2022-09-30T18:01:32.622Z,70.26
2022-09-30T18:04:20.307Z,71.59
2022-09-30T18:06:48.911Z,71.45
2022-09-30T18:09:19.131Z,72.04
2022-09-30T18:11:47.864Z,71.10
2022-09-30T18:14:16.970Z,70.92
2022-09-30T18:16:46.112Z,71.33
2022-09-30T18:19:17.290Z,73.30
2022-09-30T18:21:45.909Z,72.33
2022-09-30T18:24:39.055Z,71.45
2022-09-30T18:27:07.699Z,71.26
2022-09-30T18:29:36.263Z,70.38
2022-09-30T18:32:12.710Z,71.06
2022-09-30T18:34:50.205Z,71.41
2022-09-30T18:37:28.846Z,70.23
2022-09-30T18:39:58.913Z,70.05
2022-09-30T18:42:27.601Z,70.16
2022-09-30T18:45:06.640Z,70.53
2022-09-30T18:47:35.566Z,70.39
2022-09-30T18:50:04.943Z,70.01
2022-09-30T18:52:33.510Z,71.16
2022-09-30T18:55:07.639Z,71.55
2022-09-30T18:57:42.430Z,71.44
2022-09-30T19:00:12.576Z,70.86
2022-09-30T19:02:43.952Z,71.34
2022-09-30T19:05:13.565Z,71.06
2022-09-30T19:07:42.288Z,71.78
2022-09-30T19:10:13.276Z,72.37
2022-09-30T19:12:47.527Z,72.27
2022-09-30T19:15:17.265Z,72.22
2022-09-30T19:17:49.725Z,72.68
2022-09-30T19:20:20.095Z,72.03
2022-09-30T19:22:51.934Z,71.77
2022-09-30T19:25:22.158Z,70.83
2022-09-30T19:27:55.609Z,71.61
2022-09-30T19:30:24.189Z,72.31
2022-09-30T19:32:59.423Z,73.46
2022-09-30T19:35:37.766Z,71.89
2022-09-30T19:38:07.877Z,72.15
2022-09-30T19:40:37.849Z,73.72
2022-09-30T19:43:08.916Z,73.21
2022-09-30T19:45:37.466Z,72.22
2022-09-30T19:48:09.457Z,72.37
2022-09-30T19:50:40.438Z,73.35
2022-09-30T19:53:09.651Z,73.17
2022-09-30T19:55:50.048Z,74.78
2022-09-30T19:58:23.685Z,74.41
2022-09-30T20:00:56.422Z,74.39
2022-09-30T20:03:31.307Z,73.91
2022-09-30T20:06:02.062Z,72.98
2022-09-30T20:08:31.460Z,72.74
2022-09-30T20:11:05.624Z,72.31
2022-09-30T20:13:37.449Z,72.42
2022-09-30T20:16:10.161Z,72.45
2022-09-30T20:18:42.384Z,72.15
2022-09-30T20:21:12.279Z,72.62
2022-09-30T20:23:41.441Z,73.05
2022-09-30T20:26:15.074Z,74.09
2022-09-30T20:28:43.852Z,72.51
2022-09-30T20:31:18.399Z,74.00
2022-09-30T20:33:54.758Z,75.25
2022-09-30T20:36:25.769Z,75.14
2022-09-30T20:39:05.916Z,75.04
2022-09-30T20:41:38.128Z,74.34
2022-09-30T20:44:08.588Z,73.96
2022-09-30T20:46:43.347Z,73.72
2022-09-30T20:49:14.180Z,74.43
2022-09-30T20:51:43.193Z,72.35
2022-09-30T20:54:12.757Z,72.63
2022-09-30T20:57:06.877Z,73.28
2022-09-30T20:59:36.003Z,74.00
2022-09-30T21:02:05.029Z,73.12
2022-09-30T21:04:35.045Z,73.67
2022-09-30T21:07:03.854Z,73.14
2022-09-30T21:09:34.883Z,71.94
2022-09-30T21:12:05.124Z,72.33
2022-09-30T21:14:36.795Z,73.28
2022-09-30T21:17:06.053Z,72.86
2022-09-30T21:19:34.533Z,71.89
2022-09-30T21:22:03.113Z,71.10
2022-09-30T21:24:31.514Z,70.52
2022-09-30T21:27:01.696Z,70.44
2022-09-30T21:29:32.911Z,72.19
2022-09-30T21:32:02.029Z,70.51
2022-09-30T21:34:30.329Z,68.99
2022-09-30T21:36:58.713Z,69.39
2022-09-30T21:39:27.119Z,69.66
2022-09-30T21:41:55.602Z,70.88
2022-09-30T21:44:25.724Z,70.80
2022-09-30T21:46:55.562Z,71.42
2022-09-30T21:49:25.129Z,72.06
2022-09-30T21:51:54.132Z,72.75
2022-09-30T21:54:23.395Z,72.61
2022-09-30T21:56:51.935Z,71.65
2022-09-30T21:59:20.511Z,71.41
2022-09-30T22:01:48.938Z,70.42
2022-09-30T22:04:19.599Z,71.82
2022-09-30T22:06:48.095Z,72.73
2022-09-30T22:09:16.840Z,72.57
2022-09-30T22:11:45.254Z,71.05
2022-09-30T22:14:13.689Z,69.70
2022-09-30T22:16:42.177Z,68.61
2022-09-30T22:19:10.565Z,68.67
2022-09-30T22:21:40.336Z,68.29
2022-09-30T22:24:10.356Z,69.37
2022-09-30T22:26:40.050Z,68.58
2022-09-30T22:29:12.084Z,68.94
2022-09-30T22:31:40.975Z,69.33
2022-09-30T22:34:30.976Z,68.69
2022-09-30T22:37:18.768Z,68.72
2022-09-30T22:39:47.354Z,68.57
2022-09-30T22:42:15.731Z,68.25
2022-09-30T22:44:44.222Z,68.73
2022-09-30T22:47:13.315Z,70.53
2022-09-30T22:49:41.831Z,70.74
2022-09-30T22:52:11.661Z,70.99
2022-09-30T22:54:40.134Z,71.39
2022-09-30T22:57:09.944Z,71.83
2022-09-30T22:59:38.315Z,71.96
2022-09-30T23:02:07.046Z,71.37
2022-09-30T23:04:36.271Z,71.86
2022-09-30T23:07:08.319Z,71.39
2022-09-30T23:09:38.245Z,71.99
2022-09-30T23:12:06.660Z,70.96
2022-09-30T23:14:35.013Z,70.49
2022-09-30T23:17:03.352Z,69.70
2022-09-30T23:19:31.762Z,70.84
2022-09-30T23:22:00.096Z,71.76
2022-09-30T23:24:33.211Z,71.89
2022-09-30T23:27:03.078Z,71.29
2022-09-30T23:29:31.555Z,69.73
2022-09-30T23:31:59.921Z,69.83
2022-09-30T23:34:28.360Z,71.50
2022-09-30T23:36:56.707Z,71.90
2022-09-30T23:39:25.287Z,71.44
2022-09-30T23:41:53.634Z,70.97
2022-09-30T23:44:24.639Z,71.20
2022-09-30T23:47:10.488Z,71.26
2022-09-30T23:49:39.203Z,71.49
2022-09-30T23:52:12.690Z,71.29
2022-09-30T23:54:42.358Z,71.40
2022-09-30T23:57:11.193Z,71.15
2022-09-30T23:59:40.906Z,70.74
